createdAt,value
2018-08-09T00:02:25.643Z,22.00
2018-08-09T00:04:55.618Z,22.10
2018-08-09T00:07:25.512Z,22.10
2018-08-09T00:09:55.728Z,21.60
2018-08-09T00:12:25.682Z,21.70
2018-08-09T00:14:55.614Z,21.80
2018-08-09T00:17:25.873Z,21.90
2018-08-09T00:19:55.819Z,22.00
2018-08-09T00:22:26.108Z,22.00
2018-08-09T00:24:56.517Z,21.70
2018-08-09T00:27:26.384Z,21.60
2018-08-09T00:29:56.279Z,21.50
2018-08-09T00:32:26.266Z,21.70
2018-08-09T00:34:56.223Z,21.70
2018-08-09T00:37:26.607Z,21.60
2018-08-09T00:39:56.661Z,21.70
2018-08-09T00:42:26.526Z,21.80
2018-08-09T00:44:56.581Z,21.90
2018-08-09T00:47:26.518Z,21.70
2018-08-09T00:49:56.490Z,21.70
2018-08-09T00:52:26.688Z,21.80
2018-08-09T00:54:56.826Z,21.50
2018-08-09T00:57:26.824Z,22.80
2018-08-09T00:59:56.973Z,21.50
2018-08-09T01:02:26.875Z,21.60
2018-08-09T01:04:56.841Z,21.60
2018-08-09T01:07:27.026Z,21.70
2018-08-09T01:09:57.059Z,21.70
2018-08-09T01:12:26.962Z,21.60
2018-08-09T01:14:57.202Z,21.50
2018-08-09T01:17:27.221Z,22.70
2018-08-09T01:19:57.249Z,21.30
2018-08-09T01:22:27.537Z,20.10
2018-08-09T01:24:57.651Z,21.30
2018-08-09T01:27:27.606Z,21.40
2018-08-09T01:29:57.967Z,21.40
2018-08-09T01:32:27.853Z,21.40
2018-08-09T01:34:58.057Z,21.50
2018-08-09T01:37:28.017Z,21.60
2018-08-09T01:39:58.087Z,21.70
2018-08-09T01:42:38.359Z,21.50
2018-08-09T01:45:08.547Z,21.50
2018-08-09T01:47:38.858Z,21.50
2018-08-09T01:50:08.798Z,21.50
2018-08-09T01:52:38.723Z,21.60
2018-08-09T01:55:08.923Z,21.40
2018-08-09T01:57:38.771Z,21.40
2018-08-09T02:00:09.607Z,21.40
2018-08-09T02:02:40.001Z,21.50
2018-08-09T02:05:10.672Z,21.70
2018-08-09T02:07:40.567Z,21.70
2018-08-09T02:10:10.476Z,21.60
2018-08-09T02:12:40.385Z,21.40
2018-08-09T02:15:10.626Z,21.40
2018-08-09T02:17:40.830Z,20.50
2018-08-09T02:20:11.042Z,21.70
2018-08-09T02:22:40.971Z,21.70
2018-08-09T02:25:11.166Z,21.60
2018-08-09T02:27:41.087Z,21.50
2018-08-09T02:30:11.182Z,21.50
2018-08-09T02:32:41.030Z,21.50
2018-08-09T02:35:11.128Z,21.10
2018-08-09T02:37:41.361Z,20.90
2018-08-09T02:40:11.290Z,20.40
2018-08-09T02:42:41.154Z,21.20
2018-08-09T02:45:11.058Z,21.20
2018-08-09T02:47:40.912Z,22.10
2018-08-09T02:50:10.888Z,21.30
2018-08-09T02:52:40.868Z,21.30
2018-08-09T02:55:10.940Z,21.20
2018-08-09T02:57:41.085Z,21.20
2018-08-09T03:00:11.361Z,21.10
2018-08-09T03:02:41.230Z,21.10
2018-08-09T03:05:11.195Z,21.10
2018-08-09T03:07:41.195Z,21.30
2018-08-09T03:10:11.074Z,21.40
2018-08-09T03:12:41.526Z,21.30
2018-08-09T03:15:11.524Z,21.40
2018-08-09T03:17:41.546Z,21.50
2018-08-09T03:20:11.454Z,21.50
2018-08-09T03:22:41.343Z,21.50
2018-08-09T03:25:11.275Z,21.20
2018-08-09T03:27:41.722Z,21.10
2018-08-09T03:30:11.692Z,21.20
2018-08-09T03:32:41.570Z,21.30
2018-08-09T03:35:11.645Z,21.50
2018-08-09T03:37:41.521Z,21.70
2018-08-09T03:40:11.738Z,21.70
2018-08-09T03:42:41.652Z,21.80
2018-08-09T03:45:12.005Z,21.60
2018-08-09T03:47:41.878Z,21.40
2018-08-09T03:50:11.911Z,21.60
2018-08-09T03:52:42.127Z,21.70
2018-08-09T03:55:12.005Z,21.80
2018-08-09T03:57:41.878Z,21.80
2018-08-09T04:00:12.076Z,21.70
2018-08-09T04:02:42.008Z,21.80
2018-08-09T04:05:12.093Z,21.80
2018-08-09T04:07:42.420Z,21.80
2018-08-09T04:10:12.467Z,21.90
2018-08-09T04:12:42.402Z,21.90
2018-08-09T04:15:13.474Z,21.80
2018-08-09T04:17:43.852Z,21.80
2018-08-09T04:20:13.767Z,21.90
2018-08-09T04:22:44.044Z,21.90
2018-08-09T04:25:13.961Z,21.90
2018-08-09T04:27:43.815Z,22.00
2018-08-09T04:30:14.163Z,21.90
2018-08-09T04:32:44.099Z,21.90
2018-08-09T04:35:14.234Z,21.70
2018-08-09T04:37:44.482Z,21.70
2018-08-09T04:40:14.571Z,21.60
2018-08-09T04:42:44.427Z,21.70
2018-08-09T04:45:15.527Z,20.40
2018-08-09T04:47:45.741Z,21.70
2018-08-09T04:50:15.834Z,21.70
2018-08-09T04:52:46.154Z,21.80
2018-08-09T04:55:16.062Z,21.80
2018-08-09T04:57:47.607Z,21.30
2018-08-09T05:00:17.974Z,21.30
2018-08-09T05:02:50.462Z,21.30
2018-08-09T05:05:21.087Z,21.50
2018-08-09T05:07:52.000Z,21.50
2018-08-09T05:10:22.190Z,21.60
2018-08-09T05:12:54.018Z,22.50
2018-08-09T05:15:26.819Z,21.80
2018-08-09T05:17:57.476Z,21.90
2018-08-09T05:20:27.816Z,22.50
2018-08-09T05:22:58.025Z,22.10
2018-08-09T05:25:28.134Z,21.90
2018-08-09T05:27:58.628Z,22.10
2018-08-09T05:30:30.962Z,22.20
2018-08-09T05:33:01.467Z,22.20
2018-08-09T05:35:31.716Z,20.90
2018-08-09T05:38:01.736Z,22.30
2018-08-09T05:40:34.767Z,22.20
2018-08-09T05:43:19.757Z,21.90
2018-08-09T05:45:59.878Z,21.60
2018-08-09T05:48:40.795Z,21.60
2018-08-09T05:51:10.688Z,21.50
2018-08-09T05:53:40.730Z,21.50
2018-08-09T05:56:11.004Z,21.70
2018-08-09T05:58:41.395Z,21.50
2018-08-09T06:01:11.495Z,21.60
2018-08-09T06:03:41.780Z,21.60
2018-08-09T06:06:11.803Z,21.40
2018-08-09T06:08:42.526Z,21.50
2018-08-09T06:11:12.594Z,21.80
2018-08-09T06:13:42.493Z,22.00
2018-08-09T06:16:12.462Z,22.00
2018-08-09T06:18:42.497Z,22.10
2018-08-09T06:21:12.623Z,22.60
2018-08-09T06:23:43.149Z,23.50
2018-08-09T06:26:13.212Z,24.10
2018-08-09T06:28:43.248Z,24.40
2018-08-09T06:31:13.250Z,24.50
2018-08-09T06:33:43.569Z,24.60
2018-08-09T06:36:13.521Z,24.60
2018-08-09T06:38:43.998Z,24.50
2018-08-09T06:41:14.085Z,24.50
2018-08-09T06:43:44.103Z,24.40
2018-08-09T06:46:14.025Z,24.10
2018-08-09T06:48:44.117Z,23.90
2018-08-09T06:51:14.176Z,23.80
2018-08-09T06:53:44.860Z,24.00
2018-08-09T06:56:15.678Z,24.20
2018-08-09T06:58:45.678Z,24.50
2018-08-09T07:01:15.962Z,23.90
2018-08-09T07:03:47.019Z,23.20
2018-08-09T07:06:17.277Z,22.40
2018-08-09T07:08:47.290Z,22.70
2018-08-09T07:11:17.308Z,22.50
2018-08-09T07:13:48.082Z,22.90
2018-08-09T07:16:18.189Z,23.00
2018-08-09T07:18:48.238Z,22.90
2018-08-09T07:21:18.647Z,22.50
2018-08-09T07:23:48.738Z,22.30
2018-08-09T07:26:25.202Z,22.40
2018-08-09T07:28:56.517Z,22.70
2018-08-09T07:31:26.707Z,22.50
2018-08-09T07:33:56.719Z,22.60
2018-08-09T07:36:27.296Z,23.00
2018-08-09T07:38:57.529Z,23.40
2018-08-09T07:41:27.497Z,24.00
2018-08-09T07:43:57.975Z,24.40
2018-08-09T07:46:28.493Z,24.10
2018-08-09T07:48:58.812Z,23.60
2018-08-09T07:51:28.814Z,23.80
2018-08-09T07:53:59.316Z,23.90
2018-08-09T07:56:29.229Z,24.00
2018-08-09T07:59:00.362Z,24.20
2018-08-09T08:01:30.374Z,24.80
2018-08-09T08:04:00.436Z,24.70
2018-08-09T08:06:31.099Z,25.70
2018-08-09T08:09:01.078Z,26.10
2018-08-09T08:11:31.028Z,26.20
2018-08-09T08:14:02.072Z,26.10
2018-08-09T08:16:32.600Z,25.90
2018-08-09T08:19:03.016Z,25.30
2018-08-09T08:21:36.191Z,25.00
2018-08-09T08:24:06.631Z,25.60
2018-08-09T08:26:36.764Z,26.20
2018-08-09T08:29:07.371Z,26.40
2018-08-09T08:31:37.360Z,26.30
2018-08-09T08:34:07.679Z,26.10
2018-08-09T08:36:38.474Z,25.70
2018-08-09T08:39:11.615Z,25.70
2018-08-09T08:41:43.128Z,25.90
2018-08-09T08:44:16.582Z,26.00
2018-08-09T08:46:46.904Z,25.00
2018-08-09T08:49:17.394Z,26.20
2018-08-09T08:51:47.414Z,25.30
2018-08-09T08:54:18.035Z,25.30
2018-08-09T08:56:49.730Z,25.60
2018-08-09T08:59:19.986Z,26.00
2018-08-09T09:01:49.989Z,26.50
2018-08-09T09:04:20.595Z,26.50
2018-08-09T09:06:53.556Z,26.80
2018-08-09T09:09:24.396Z,26.60
2018-08-09T09:11:54.905Z,26.70
2018-08-09T09:14:25.201Z,27.00
2018-08-09T09:16:56.821Z,27.30
2018-08-09T09:19:28.791Z,27.50
2018-08-09T09:21:59.852Z,27.50
2018-08-09T09:24:32.975Z,26.80
2018-08-09T09:27:03.622Z,26.90
2018-08-09T09:29:34.061Z,26.30
2018-08-09T09:32:06.252Z,26.30
2018-08-09T09:34:36.492Z,26.40
2018-08-09T09:37:06.824Z,26.70
2018-08-09T09:39:39.045Z,27.00
2018-08-09T09:42:09.351Z,27.10
2018-08-09T09:44:40.477Z,26.40
2018-08-09T09:47:10.696Z,27.30
2018-08-09T09:49:41.785Z,27.50
2018-08-09T09:52:12.255Z,27.80
2018-08-09T09:54:42.540Z,27.90
2018-08-09T09:57:12.774Z,28.00
2018-08-09T09:59:43.893Z,27.90
2018-08-09T10:02:14.128Z,27.90
2018-08-09T10:04:44.379Z,29.00
2018-08-09T10:07:14.856Z,28.30
2018-08-09T10:09:45.457Z,28.40
2018-08-09T10:12:18.290Z,28.90
2018-08-09T10:14:49.053Z,29.40
2018-08-09T10:17:20.351Z,29.80
2018-08-09T10:19:51.507Z,30.20
2018-08-09T10:22:22.324Z,30.10
2018-08-09T10:24:52.635Z,30.80
2018-08-09T10:27:22.784Z,31.10
2018-08-09T10:29:54.400Z,31.20
2018-08-09T10:32:24.604Z,31.10
2018-08-09T10:34:54.971Z,30.90
2018-08-09T10:37:25.567Z,30.80
2018-08-09T10:39:55.916Z,31.10
2018-08-09T10:42:26.080Z,31.10
2018-08-09T10:44:56.782Z,30.30
2018-08-09T10:47:27.522Z,30.30
2018-08-09T10:49:59.078Z,30.50
2018-08-09T10:52:30.368Z,30.60
2018-08-09T10:55:00.587Z,30.10
2018-08-09T10:57:32.732Z,30.50
2018-08-09T11:00:04.933Z,31.00
2018-08-09T11:02:35.121Z,31.50
2018-08-09T11:05:07.805Z,31.50
2018-08-09T11:07:39.776Z,31.20
2018-08-09T11:10:11.456Z,31.60
2018-08-09T11:12:43.093Z,31.50
2018-08-09T11:15:14.336Z,31.40
2018-08-09T11:17:48.729Z,30.70
2018-08-09T11:20:21.968Z,30.40
2018-08-09T11:22:52.019Z,30.60
2018-08-09T11:25:24.016Z,30.50
2018-08-09T11:27:59.045Z,30.50
2018-08-09T11:30:36.471Z,29.80
2018-08-09T11:33:06.745Z,30.80
2018-08-09T11:35:37.714Z,30.80
2018-08-09T11:38:07.798Z,30.60
2018-08-09T11:40:38.172Z,30.40
2018-08-09T11:43:10.249Z,30.00
2018-08-09T11:45:40.350Z,29.60
2018-08-09T11:48:10.813Z,29.40
2018-08-09T11:50:42.271Z,29.20
2018-08-09T11:53:12.852Z,29.00
2018-08-09T11:55:43.478Z,28.80
2018-08-09T11:58:16.551Z,28.90
2018-08-09T12:00:47.970Z,28.80
2018-08-09T12:03:19.818Z,28.60
2018-08-09T12:05:49.928Z,28.70
2018-08-09T12:08:20.457Z,29.10
2018-08-09T12:10:51.342Z,28.40
2018-08-09T12:13:22.540Z,28.40
2018-08-09T12:15:52.579Z,28.50
2018-08-09T12:18:23.105Z,28.30
2018-08-09T12:20:53.259Z,28.20
2018-08-09T12:23:23.371Z,28.10
2018-08-09T12:25:54.417Z,28.00
2018-08-09T12:28:24.642Z,27.90
2018-08-09T12:30:55.483Z,27.80
2018-08-09T12:33:25.931Z,27.90
2018-08-09T12:35:56.098Z,27.90
2018-08-09T12:38:26.296Z,27.50
2018-08-09T12:40:57.247Z,27.00
2018-08-09T12:43:27.944Z,26.80
2018-08-09T12:45:58.390Z,26.70
2018-08-09T12:48:28.522Z,26.70
2018-08-09T12:50:59.452Z,26.90
2018-08-09T12:53:29.758Z,26.60
2018-08-09T12:56:05.178Z,26.30
2018-08-09T12:58:37.707Z,26.40
2018-08-09T13:01:11.203Z,26.60
2018-08-09T13:03:50.760Z,26.70
2018-08-09T13:06:22.225Z,26.80
2018-08-09T13:08:56.121Z,26.90
2018-08-09T13:11:30.530Z,27.10
2018-08-09T13:14:01.470Z,27.20
2018-08-09T13:16:31.888Z,26.90
2018-08-09T13:19:03.818Z,26.50
2018-08-09T13:21:35.564Z,26.40
2018-08-09T13:24:07.311Z,26.20
2018-08-09T13:26:38.222Z,25.50
2018-08-09T13:29:09.177Z,26.70
2018-08-09T13:31:39.855Z,27.00
2018-08-09T13:34:10.518Z,27.20
2018-08-09T13:36:40.700Z,27.50
2018-08-09T13:39:13.431Z,27.80
2018-08-09T13:41:45.490Z,27.70
2018-08-09T13:44:15.954Z,27.60
2018-08-09T13:46:48.627Z,27.30
2018-08-09T13:49:21.004Z,27.30
2018-08-09T13:51:51.481Z,27.60
2018-08-09T13:54:21.817Z,27.60
2018-08-09T13:56:52.153Z,27.40
2018-08-09T13:59:22.903Z,27.40
2018-08-09T14:01:53.510Z,28.40
2018-08-09T14:04:29.028Z,27.40
2018-08-09T14:07:00.572Z,27.30
2018-08-09T14:09:31.408Z,27.80
2018-08-09T14:12:02.373Z,28.50
2018-08-09T14:14:32.921Z,28.60
2018-08-09T14:17:05.539Z,28.70
2018-08-09T14:19:35.507Z,28.40
2018-08-09T14:22:06.765Z,28.30
2018-08-09T14:24:37.082Z,28.30
2018-08-09T14:27:09.982Z,28.70
2018-08-09T14:29:40.327Z,28.50
2018-08-09T14:32:10.901Z,28.30
2018-08-09T14:34:41.137Z,28.30
2018-08-09T14:37:12.067Z,28.10
2018-08-09T14:39:42.453Z,28.30
2018-08-09T14:42:12.922Z,28.40
2018-08-09T14:44:43.374Z,28.20
2018-08-09T14:47:13.782Z,27.90
2018-08-09T14:49:43.983Z,27.30
2018-08-09T14:52:14.451Z,26.60
2018-08-09T14:54:44.859Z,26.10
2018-08-09T14:57:15.515Z,26.90
2018-08-09T14:59:46.187Z,27.00
2018-08-09T15:02:16.496Z,27.20
2018-08-09T15:04:46.960Z,27.40
2018-08-09T15:07:18.299Z,27.20
2018-08-09T15:09:49.754Z,27.00
2018-08-09T15:12:27.957Z,27.20
2018-08-09T15:15:02.716Z,27.40
2018-08-09T15:17:33.548Z,27.40
2018-08-09T15:20:04.762Z,27.10
2018-08-09T15:22:36.455Z,27.30
2018-08-09T15:25:10.134Z,27.30
2018-08-09T15:27:40.426Z,27.10
2018-08-09T15:30:17.556Z,27.20
2018-08-09T15:32:48.159Z,27.40
2018-08-09T15:35:19.923Z,27.80
2018-08-09T15:37:50.608Z,27.90
2018-08-09T15:40:21.018Z,27.70
2018-08-09T15:42:51.264Z,27.50
2018-08-09T15:45:21.630Z,27.40
2018-08-09T15:47:52.199Z,27.40
2018-08-09T15:50:23.091Z,27.40
2018-08-09T15:52:54.993Z,27.40
2018-08-09T15:55:27.013Z,27.40
2018-08-09T15:57:57.102Z,27.30
2018-08-09T16:00:27.242Z,27.20
2018-08-09T16:02:58.948Z,27.40
2018-08-09T16:05:30.275Z,27.40
2018-08-09T16:08:02.109Z,26.70
2018-08-09T16:10:32.307Z,26.50
2018-08-09T16:13:03.015Z,26.30
2018-08-09T16:15:33.930Z,25.90
2018-08-09T16:18:06.036Z,25.80
2018-08-09T16:20:36.199Z,25.70
2018-08-09T16:23:06.772Z,26.00
2018-08-09T16:25:37.038Z,26.00
2018-08-09T16:28:07.673Z,26.10
2018-08-09T16:30:37.795Z,25.90
2018-08-09T16:33:09.441Z,25.60
2018-08-09T16:35:40.329Z,25.50
2018-08-09T16:38:10.656Z,25.60
2018-08-09T16:40:40.969Z,25.70
2018-08-09T16:43:12.043Z,25.60
2018-08-09T16:45:42.192Z,25.40
2018-08-09T16:48:12.445Z,25.50
2018-08-09T16:50:42.803Z,25.60
2018-08-09T16:53:13.396Z,25.50
2018-08-09T16:55:43.892Z,25.50
2018-08-09T16:58:14.480Z,25.60
2018-08-09T17:00:44.768Z,25.50
2018-08-09T17:03:16.544Z,25.60
2018-08-09T17:05:47.102Z,25.30
2018-08-09T17:08:17.358Z,25.10
2018-08-09T17:10:47.742Z,25.00
2018-08-09T17:13:18.143Z,24.80
2018-08-09T17:15:48.741Z,24.70
2018-08-09T17:18:18.986Z,24.70
2018-08-09T17:20:49.448Z,24.70
2018-08-09T17:23:21.045Z,24.90
2018-08-09T17:25:51.225Z,24.90
2018-08-09T17:28:21.448Z,24.00
2018-08-09T17:30:51.917Z,24.40
2018-08-09T17:33:22.078Z,25.00
2018-08-09T17:35:52.418Z,24.60
2018-08-09T17:38:22.745Z,24.80
2018-08-09T17:40:52.825Z,24.50
2018-08-09T17:43:23.343Z,24.50
2018-08-09T17:45:53.598Z,24.40
2018-08-09T17:48:23.942Z,24.40
2018-08-09T17:50:54.085Z,24.70
2018-08-09T17:53:24.479Z,24.60
2018-08-09T17:55:55.121Z,24.10
2018-08-09T17:58:26.030Z,23.90
2018-08-09T18:00:56.647Z,23.80
2018-08-09T18:03:26.826Z,23.70
2018-08-09T18:05:58.265Z,23.50
2018-08-09T18:08:28.637Z,23.50
2018-08-09T18:10:59.818Z,23.20
2018-08-09T18:13:30.607Z,23.50
2018-08-09T18:16:01.524Z,23.90
2018-08-09T18:18:33.347Z,24.00
2018-08-09T18:21:05.775Z,24.30
2018-08-09T18:23:35.948Z,24.50
2018-08-09T18:26:07.326Z,24.40
2018-08-09T18:28:37.640Z,24.30
2018-08-09T18:31:07.862Z,23.30
2018-08-09T18:33:39.439Z,24.70
2018-08-09T18:36:09.800Z,24.80
2018-08-09T18:38:41.997Z,24.90
2018-08-09T18:41:12.254Z,24.90
2018-08-09T18:43:42.700Z,25.10
2018-08-09T18:46:13.163Z,24.40
2018-08-09T18:48:43.615Z,24.50
2018-08-09T18:51:14.711Z,24.20
2018-08-09T18:53:45.064Z,24.00
2018-08-09T18:56:15.531Z,23.80
2018-08-09T18:58:46.557Z,24.50
2018-08-09T19:01:17.926Z,23.90
2018-08-09T19:03:48.859Z,24.10
2018-08-09T19:06:19.331Z,24.40
2018-08-09T19:08:49.611Z,24.50
2018-08-09T19:11:20.232Z,24.50
2018-08-09T19:13:51.027Z,24.70
2018-08-09T19:16:21.214Z,24.80
2018-08-09T19:18:51.319Z,24.50
2018-08-09T19:21:21.799Z,24.50
2018-08-09T19:23:51.957Z,24.30
2018-08-09T19:26:22.943Z,23.90
2018-08-09T19:28:53.396Z,23.80
2018-08-09T19:31:23.512Z,23.80
2018-08-09T19:33:53.716Z,23.90
2018-08-09T19:36:24.068Z,24.00
2018-08-09T19:38:54.648Z,24.10
2018-08-09T19:41:25.038Z,24.10
2018-08-09T19:43:55.666Z,24.50
2018-08-09T19:46:27.620Z,24.60
2018-08-09T19:48:57.919Z,23.60
2018-08-09T19:51:28.495Z,23.80
2018-08-09T19:53:58.727Z,23.80
2018-08-09T19:56:29.144Z,23.80
2018-08-09T19:58:59.534Z,23.90
2018-08-09T20:01:29.737Z,23.90
2018-08-09T20:04:00.463Z,23.90
2018-08-09T20:06:31.180Z,23.80
2018-08-09T20:09:02.366Z,23.70
2018-08-09T20:11:33.575Z,23.60
2018-08-09T20:14:07.444Z,23.60
2018-08-09T20:16:37.897Z,23.30
2018-08-09T20:19:09.843Z,23.30
2018-08-09T20:21:40.085Z,23.50
2018-08-09T20:24:10.433Z,23.50
2018-08-09T20:26:41.799Z,23.70
2018-08-09T20:29:12.308Z,23.90
2018-08-09T20:31:43.133Z,23.90
2018-08-09T20:34:14.997Z,24.00
2018-08-09T20:36:45.744Z,24.10
2018-08-09T20:39:16.041Z,24.40
2018-08-09T20:41:46.544Z,23.50
2018-08-09T20:44:17.028Z,23.40
2018-08-09T20:46:47.418Z,22.70
2018-08-09T20:49:19.183Z,22.60
2018-08-09T20:51:49.677Z,22.70
2018-08-09T20:54:21.876Z,22.70
2018-08-09T20:56:52.371Z,22.70
2018-08-09T20:59:22.968Z,22.40
2018-08-09T21:01:53.411Z,21.70
2018-08-09T21:04:24.064Z,21.60
2018-08-09T21:06:55.856Z,21.30
2018-08-09T21:09:26.761Z,21.30
2018-08-09T21:11:57.096Z,21.30
2018-08-09T21:14:29.180Z,21.50
2018-08-09T21:16:59.649Z,21.60
2018-08-09T21:19:29.958Z,21.10
2018-08-09T21:22:00.248Z,21.20
2018-08-09T21:24:30.814Z,20.90
2018-08-09T21:27:00.960Z,20.80
2018-08-09T21:29:31.068Z,20.70
2018-08-09T21:32:01.215Z,20.50
2018-08-09T21:34:31.630Z,20.90
2018-08-09T21:37:01.969Z,20.20
2018-08-09T21:39:32.305Z,21.70
2018-08-09T21:42:03.906Z,21.20
2018-08-09T21:44:34.665Z,21.00
2018-08-09T21:47:05.296Z,20.90
2018-08-09T21:49:35.436Z,20.70
2018-08-09T21:52:05.866Z,21.00
2018-08-09T21:54:36.024Z,21.10
2018-08-09T21:57:06.405Z,21.10
2018-08-09T21:59:37.025Z,21.10
2018-08-09T22:02:08.786Z,20.70
2018-08-09T22:04:44.333Z,20.10
2018-08-09T22:07:19.446Z,20.70
2018-08-09T22:09:54.954Z,20.20
2018-08-09T22:12:30.444Z,20.30
2018-08-09T22:17:11.731Z,20.40
2018-08-09T22:19:46.562Z,20.10
2018-08-09T22:22:18.714Z,20.30
2018-08-09T22:24:48.996Z,20.30
2018-08-09T22:27:19.307Z,20.60
2018-08-09T22:29:49.822Z,20.50
2018-08-09T22:32:20.054Z,20.50
2018-08-09T22:34:50.118Z,20.50
2018-08-09T22:37:20.311Z,20.20
2018-08-09T22:39:51.286Z,19.80
2018-08-09T22:42:21.645Z,19.50
2018-08-09T22:44:51.751Z,19.50
2018-08-09T22:47:22.066Z,19.90
2018-08-09T22:49:52.863Z,20.00
2018-08-09T22:52:23.418Z,20.20
2018-08-09T22:54:53.614Z,20.30
2018-08-09T22:57:24.473Z,20.60
2018-08-09T22:59:54.533Z,21.60
2018-08-09T23:02:24.842Z,20.60
2018-08-09T23:04:55.411Z,20.70
2018-08-09T23:07:25.505Z,20.50
2018-08-09T23:09:55.468Z,20.10
2018-08-09T23:12:25.803Z,20.10
2018-08-09T23:14:55.796Z,20.30
2018-08-09T23:17:26.432Z,20.00
2018-08-09T23:19:56.741Z,20.00
2018-08-09T23:22:26.781Z,20.40
2018-08-09T23:24:56.888Z,20.70
2018-08-09T23:27:27.147Z,19.70
2018-08-09T23:29:57.161Z,20.70
2018-08-09T23:32:27.315Z,20.70
2018-08-09T23:34:58.389Z,20.70
2018-08-09T23:37:28.558Z,20.30
2018-08-09T23:39:59.137Z,20.30
2018-08-09T23:42:29.525Z,20.10
2018-08-09T23:44:59.896Z,20.30
2018-08-09T23:48:22.861Z,19.70
2018-08-09T23:50:53.142Z,19.60
2018-08-09T23:53:23.369Z,19.70
2018-08-09T23:55:53.752Z,18.60
2018-08-09T23:58:23.880Z,19.40
